Time;durP1;ratioP1;P1;durP2;ratioP2;P2;SDS_P1;SDS_P2;PMS_P1;PMS_P2;Temp;Humidity;BMP_temperature;BMP_pressure;BME280_temperature;BME280_humidity;BME280_pressure;Samples;Min_cycle;Max_cycle;Signal;HPM_P1;HPM_P2
2023/05/10 00:02:09;;;;;;;24.10;21.48;;;15.70;99.90;;;;;;4958932;28;20030;-95
2023/05/10 00:04:35;;;;;;;25.00;22.02;;;15.70;99.90;;;;;;4959059;28;20030;-95
2023/05/10 00:07:01;;;;;;;24.85;22.05;;;15.70;99.90;;;;;;4958917;28;20023;-95
2023/05/10 00:09:27;;;;;;;26.00;22.65;;;15.70;99.90;;;;;;4959339;28;20463;-95
2023/05/10 00:11:52;;;;;;;26.42;22.17;;;15.70;99.90;;;;;;4943739;28;20479;-95
2023/05/10 00:14:18;;;;;;;25.75;21.98;;;15.70;99.90;;;;;;4976661;28;20085;-95
2023/05/10 00:16:44;;;;;;;28.27;22.63;;;15.70;99.90;;;;;;4977490;28;20039;-95
2023/05/10 00:19:10;;;;;;;26.52;23.15;;;15.70;99.90;;;;;;4960717;28;20023;-95
2023/05/10 00:21:36;;;;;;;27.20;23.60;;;15.70;99.90;;;;;;4967271;28;20014;-91
2023/05/10 00:24:02;;;;;;;26.10;23.02;;;15.70;99.90;;;;;;4965602;28;20112;-94
2023/05/10 00:26:27;;;;;;;26.27;22.90;;;15.70;99.90;;;;;;4998328;28;20022;-93
2023/05/10 00:28:53;;;;;;;30.13;25.00;;;15.70;99.90;;;;;;4965853;28;20015;-94
2023/05/10 00:31:19;;;;;;;27.90;24.48;;;15.70;99.90;;;;;;4975173;28;20030;-95
2023/05/10 00:33:45;;;;;;;29.75;25.08;;;15.70;99.90;;;;;;4963610;28;20114;-95
2023/05/10 00:36:13;;;;;;;28.90;24.10;;;15.70;99.90;;;;;;4962807;28;20451;-94
2023/05/10 00:38:39;;;;;;;33.13;25.02;;;15.70;99.90;;;;;;4962305;28;20031;-94
2023/05/10 00:41:04;;;;;;;31.10;25.35;;;15.70;99.90;;;;;;4962128;28;20034;-95
2023/05/10 00:43:30;;;;;;;32.53;26.15;;;15.70;99.90;;;;;;4961686;28;20449;-95
2023/05/10 00:46:22;;;;;;;31.70;26.42;;;15.70;99.90;;;;;;4962849;28;20463;-92
2023/05/10 00:48:53;;;;;;;32.47;26.30;;;15.70;99.90;;;;;;4951519;28;20077;-95
2023/05/10 00:51:22;;;;;;;30.65;25.63;;;15.70;99.90;;;;;;4979968;28;20019;-94
2023/05/10 00:53:54;;;;;;;32.08;25.90;;;15.70;99.90;;;;;;4961997;28;20122;-95
2023/05/10 00:56:24;;;;;;;32.88;26.48;;;15.70;99.90;;;;;;4961820;28;20053;-91
2023/05/10 00:58:50;;;;;;;32.55;26.55;;;15.70;99.90;;;;;;4962465;28;20027;-94
2023/05/10 01:01:16;;;;;;;32.00;26.48;;;15.70;99.90;;;;;;4945256;28;20041;-95
2023/05/10 01:03:42;;;;;;;35.33;27.00;;;15.70;99.90;;;;;;4976944;28;20031;-94
2023/05/10 01:06:09;;;;;;;32.33;26.35;;;15.70;99.90;;;;;;4960602;28;20069;-95
2023/05/10 01:08:36;;;;;;;32.45;26.88;;;15.70;99.90;;;;;;4944912;28;20045;-94
2023/05/10 01:11:02;;;;;;;32.03;26.13;;;15.70;99.90;;;;;;4978741;28;20030;-95
2023/05/10 01:13:33;;;;;;;33.88;28.05;;;15.70;99.90;;;;;;4977478;28;20042;-94
2023/05/10 01:16:02;;;;;;;32.67;27.13;;;15.70;99.90;;;;;;4960178;28;20375;-95
2023/05/10 01:18:30;;;;;;;30.25;24.75;;;15.70;99.90;;;;;;4978114;28;20023;-94
2023/05/10 01:21:23;;;;;;;30.90;26.20;;;15.70;99.90;;;;;;4961700;28;20031;-94
2023/05/10 01:24:20;;;;;;;30.50;24.85;;;15.70;99.90;;;;;;4959506;28;20051;-95
2023/05/10 01:26:52;;;;;;;29.70;24.63;;;15.70;99.90;;;;;;4952960;28;20043;-94
2023/05/10 01:29:54;;;;;;;29.80;23.50;;;15.70;99.90;;;;;;4977871;28;20031;-95
2023/05/10 01:32:32;;;;;;;26.35;21.83;;;15.70;99.90;;;;;;4960320;28;20027;-96
2023/05/10 01:35:16;;;;;;;27.48;22.40;;;15.70;99.90;;;;;;4978209;28;20034;-95
2023/05/10 01:38:00;;;;;;;26.02;20.55;;;15.70;99.90;;;;;;4960501;28;20031;-94
2023/05/10 01:40:32;;;;;;;25.40;20.25;;;15.70;99.90;;;;;;4977458;28;20352;-95
2023/05/10 01:43:05;;;;;;;25.67;21.17;;;15.70;99.90;;;;;;4959387;28;20099;-95
2023/05/10 01:45:56;;;;;;;27.27;20.20;;;15.70;99.90;;;;;;4960522;28;20026;-94
2023/05/10 01:48:27;;;;;;;23.33;19.38;;;15.70;99.90;;;;;;4954800;28;20035;-94
2023/05/10 01:50:53;;;;;;;26.23;20.23;;;15.70;99.90;;;;;;4945074;28;20387;-95
2023/05/10 01:53:22;;;;;;;27.50;21.35;;;15.80;99.90;;;;;;4960654;28;20070;-94
2023/05/10 01:55:55;;;;;;;26.70;20.90;;;15.80;99.90;;;;;;4977472;28;20050;-94
2023/05/10 01:58:25;;;;;;;27.90;22.67;;;15.70;99.90;;;;;;4960784;28;20034;-94
2023/05/10 02:00:54;;;;;;;31.50;22.50;;;15.80;99.90;;;;;;4961165;28;20034;-95
2023/05/10 02:03:26;;;;;;;25.70;20.50;;;15.70;99.90;;;;;;4987602;28;20031;-95
2023/05/10 02:05:53;;;;;;;29.75;22.85;;;15.70;99.90;;;;;;4982327;28;20007;-93
2023/05/10 02:08:20;;;;;;;29.65;22.48;;;15.80;99.90;;;;;;4983225;28;20014;-96
2023/05/10 02:10:51;;;;;;;31.38;23.75;;;15.70;99.90;;;;;;4982687;28;20019;-95
2023/05/10 02:13:19;;;;;;;32.38;23.95;;;15.70;99.90;;;;;;4997274;28;20047;-95
2023/05/10 02:15:48;;;;;;;34.92;23.75;;;15.70;99.90;;;;;;4972934;28;20050;-95
2023/05/10 02:18:15;;;;;;;36.75;25.77;;;15.70;99.90;;;;;;4960889;28;20038;-96
2023/05/10 02:20:43;;;;;;;34.20;25.30;;;15.70;99.90;;;;;;4959633;28;20050;-94
2023/05/10 02:23:10;;;;;;;35.38;25.17;;;15.70;99.90;;;;;;4976695;28;20030;-94
2023/05/10 02:25:38;;;;;;;32.67;23.90;;;15.70;99.90;;;;;;4960095;28;20035;-94
2023/05/10 02:28:06;;;;;;;34.83;24.73;;;15.70;99.90;;;;;;4943874;28;20085;-94
2023/05/10 02:30:34;;;;;;;32.60;23.63;;;15.70;99.90;;;;;;4943507;28;20118;-93
2023/05/10 02:33:00;;;;;;;34.22;24.48;;;15.70;99.90;;;;;;4943588;28;20090;-95
2023/05/10 02:35:29;;;;;;;37.60;24.85;;;15.70;99.90;;;;;;4943808;28;20069;-95
2023/05/10 02:38:00;;;;;;;31.92;23.40;;;15.70;99.90;;;;;;4959418;28;20019;-94
2023/05/10 02:40:28;;;;;;;33.42;24.88;;;15.70;99.90;;;;;;4959299;28;20027;-95
2023/05/10 02:42:56;;;;;;;32.58;25.23;;;15.60;99.90;;;;;;4959301;28;20027;-94
2023/05/10 02:45:26;;;;;;;35.10;26.25;;;15.60;99.90;;;;;;4959432;28;20019;-95
2023/05/10 02:47:52;;;;;;;35.65;26.05;;;15.60;99.90;;;;;;4959432;28;20046;-95
2023/05/10 02:50:18;;;;;;;38.10;27.88;;;15.50;99.90;;;;;;4943623;28;20038;-94
2023/05/10 02:52:53;;;;;;;39.08;28.90;;;15.60;99.90;;;;;;4943508;28;20034;-95
2023/05/10 02:55:25;;;;;;;40.70;29.42;;;15.60;99.90;;;;;;4943144;28;20475;-96
2023/05/10 02:58:01;;;;;;;39.70;29.00;;;15.60;99.90;;;;;;4959450;28;20034;-95
2023/05/10 03:00:27;;;;;;;41.25;29.52;;;15.50;99.90;;;;;;4959340;28;20023;-94
2023/05/10 03:02:54;;;;;;;38.65;28.80;;;15.50;99.90;;;;;;4943296;28;20031;-94
2023/05/10 03:05:20;;;;;;;39.10;28.83;;;15.50;99.90;;;;;;4959136;28;20031;-94
2023/05/10 03:07:46;;;;;;;36.45;27.60;;;15.50;99.90;;;;;;4958510;28;20023;-93
2023/05/10 03:10:12;;;;;;;39.72;28.55;;;15.50;99.90;;;;;;4943212;28;20121;-93
2023/05/10 03:12:51;;;;;;;36.67;29.02;;;15.50;99.90;;;;;;4942684;28;20089;-95
2023/05/10 03:15:35;;;;;;;37.38;27.55;;;15.40;99.90;;;;;;4958999;28;20041;-94
2023/05/10 03:18:09;;;;;;;37.17;28.63;;;15.40;99.90;;;;;;4958500;28;20027;-93
2023/05/10 03:20:41;;;;;;;42.25;29.63;;;15.40;99.90;;;;;;4958597;28;20030;-94
2023/05/10 03:23:26;;;;;;;37.50;28.15;;;15.40;99.90;;;;;;4957592;28;20030;-95
2023/05/10 03:25:52;;;;;;;37.47;28.08;;;15.40;99.90;;;;;;4958702;28;20482;-95
2023/05/10 03:28:20;;;;;;;41.38;30.52;;;15.40;99.90;;;;;;4958765;28;20023;-95
2023/05/10 03:30:46;;;;;;;39.05;28.63;;;15.40;99.90;;;;;;4958579;28;20081;-92
2023/05/10 03:33:13;;;;;;;40.20;29.98;;;15.40;99.90;;;;;;4975558;28;20527;-93
2023/05/10 03:35:38;;;;;;;41.67;30.05;;;15.40;99.90;;;;;;4942656;28;20031;-90
2023/05/10 03:38:04;;;;;;;37.97;28.23;;;15.40;99.90;;;;;;4958487;28;20057;-94
2023/05/10 03:40:31;;;;;;;40.22;30.15;;;15.40;99.90;;;;;;4975841;28;20062;-94
2023/05/10 03:42:58;;;;;;;39.40;28.85;;;15.40;99.90;;;;;;4958784;28;20023;-94
2023/05/10 03:45:24;;;;;;;37.05;29.20;;;15.40;99.90;;;;;;4959139;28;20030;-94
2023/05/10 03:47:50;;;;;;;42.85;31.42;;;15.40;99.90;;;;;;4960040;28;20039;-95
2023/05/10 03:50:15;;;;;;;40.33;29.77;;;15.40;99.90;;;;;;4978732;28;20030;-93
2023/05/10 03:52:41;;;;;;;40.17;29.40;;;15.30;99.90;;;;;;4981919;28;20022;-89
2023/05/10 03:55:07;;;;;;;42.33;30.50;;;15.30;99.90;;;;;;4982223;28;20038;-93
2023/05/10 03:57:34;;;;;;;38.20;28.45;;;15.30;99.90;;;;;;4998647;28;20067;-94
2023/05/10 04:00:00;;;;;;;39.13;27.85;;;15.30;99.90;;;;;;4969112;28;20058;-94
2023/05/10 04:02:25;;;;;;;42.28;29.85;;;15.30;99.90;;;;;;4975857;28;20034;-95
2023/05/10 04:04:51;;;;;;;39.58;28.27;;;15.30;99.90;;;;;;4942866;28;20027;-95
2023/05/10 04:07:17;;;;;;;39.50;28.98;;;15.30;99.90;;;;;;4960947;28;20027;-94
2023/05/10 04:09:43;;;;;;;38.17;27.85;;;15.30;99.90;;;;;;4945888;28;20034;-88
2023/05/10 04:12:09;;;;;;;41.28;28.63;;;15.30;99.90;;;;;;4961921;28;20059;-96
2023/05/10 04:14:35;;;;;;;35.25;26.67;;;15.30;99.90;;;;;;4962189;28;20074;-94
2023/05/10 04:17:01;;;;;;;35.55;27.05;;;15.30;99.90;;;;;;4962098;28;20038;-94
2023/05/10 04:19:32;;;;;;;39.33;27.90;;;15.30;99.90;;;;;;4946249;28;20054;-94
2023/05/10 04:22:01;;;;;;;33.97;25.73;;;15.30;99.90;;;;;;4946047;28;20066;-93
2023/05/10 04:24:27;;;;;;;37.72;26.13;;;15.20;99.90;;;;;;4961973;28;20035;-95
2023/05/10 04:26:54;;;;;;;35.55;26.42;;;15.20;99.90;;;;;;4961869;28;20026;-94
2023/05/10 04:29:20;;;;;;;38.13;26.27;;;15.20;99.90;;;;;;4961976;28;20030;-94
2023/05/10 04:31:46;;;;;;;33.33;25.05;;;15.20;99.90;;;;;;4945670;28;20082;-89
2023/05/10 04:34:14;;;;;;;34.10;25.08;;;15.20;99.90;;;;;;4978998;28;20030;-93
2023/05/10 04:36:43;;;;;;;32.58;24.75;;;15.20;99.90;;;;;;4945860;28;20035;-95
2023/05/10 04:39:09;;;;;;;32.33;25.08;;;15.20;99.90;;;;;;4978243;28;20033;-94
2023/05/10 04:41:35;;;;;;;32.55;24.63;;;15.20;99.90;;;;;;4978612;28;20019;-96
2023/05/10 04:44:01;;;;;;;36.47;24.92;;;15.20;99.90;;;;;;4961060;28;20031;-95
2023/05/10 04:46:26;;;;;;;32.08;24.40;;;15.20;99.90;;;;;;4945547;28;20030;-95
2023/05/10 04:48:52;;;;;;;35.42;26.55;;;15.10;99.90;;;;;;4961968;28;20501;-94
2023/05/10 04:51:18;;;;;;;37.33;25.38;;;15.20;99.90;;;;;;4962058;28;20027;-95
2023/05/10 04:53:43;;;;;;;32.90;24.52;;;15.10;99.90;;;;;;4945554;28;20035;-93
2023/05/10 04:56:09;;;;;;;35.55;25.88;;;15.20;99.90;;;;;;4961818;28;20082;-94
2023/05/10 04:58:35;;;;;;;33.50;25.20;;;15.20;99.90;;;;;;4979691;28;20026;-92
2023/05/10 05:01:09;;;;;;;32.67;24.23;;;15.20;99.90;;;;;;4945489;28;20034;-94
2023/05/10 05:03:35;;;;;;;35.40;25.40;;;15.20;99.90;;;;;;4945387;28;20082;-94
2023/05/10 05:06:01;;;;;;;32.92;24.38;;;15.20;99.90;;;;;;4961078;28;20509;-93
2023/05/10 05:08:26;;;;;;;33.15;24.63;;;15.20;99.90;;;;;;4962322;28;20035;-93
2023/05/10 05:10:52;;;;;;;35.88;25.20;;;15.30;99.90;;;;;;4960941;28;20030;-91
2023/05/10 05:13:18;;;;;;;35.20;24.15;;;15.30;99.90;;;;;;4961128;28;20082;-92
2023/05/10 05:15:44;;;;;;;37.80;25.90;;;15.30;99.90;;;;;;4945369;28;20081;-94
2023/05/10 05:18:09;;;;;;;33.60;24.27;;;15.30;99.90;;;;;;4961849;28;20455;-93
2023/05/10 05:20:35;;;;;;;35.40;25.20;;;15.30;99.90;;;;;;4945976;28;20475;-93
2023/05/10 05:23:01;;;;;;;34.10;24.02;;;15.30;99.90;;;;;;4961031;28;20117;-94
2023/05/10 05:25:27;;;;;;;34.30;25.25;;;15.30;99.90;;;;;;4961221;28;20031;-92
2023/05/10 05:27:52;;;;;;;34.75;25.85;;;15.30;99.90;;;;;;4980852;28;20066;-89
2023/05/10 05:30:18;;;;;;;33.03;23.30;;;15.30;99.90;;;;;;4961163;28;20046;-94
2023/05/10 05:32:44;;;;;;;32.03;23.35;;;15.30;99.90;;;;;;4968083;28;20056;-91
2023/05/10 05:35:10;;;;;;;33.88;23.95;;;15.40;99.90;;;;;;4984018;28;20046;-90
2023/05/10 05:37:37;;;;;;;33.55;22.48;;;15.40;99.90;;;;;;4982590;28;20007;-91
2023/05/10 05:40:03;;;;;;;30.70;23.13;;;15.40;99.90;;;;;;4983757;28;20078;-90
2023/05/10 05:42:30;;;;;;;33.03;23.90;;;15.40;99.90;;;;;;4970493;28;20470;-93
2023/05/10 05:44:56;;;;;;;34.78;24.42;;;15.40;99.90;;;;;;4946367;28;20039;-90
2023/05/10 05:47:21;;;;;;;35.03;24.48;;;15.40;99.90;;;;;;4961693;28;20076;-92
2023/05/10 05:49:47;;;;;;;34.97;24.35;;;15.40;99.90;;;;;;4944444;28;20074;-91
2023/05/10 05:52:13;;;;;;;34.38;23.67;;;15.40;99.90;;;;;;4977051;28;20054;-92
2023/05/10 05:54:39;;;;;;;34.75;24.80;;;15.50;99.90;;;;;;4959509;28;20027;-93
2023/05/10 05:57:05;;;;;;;33.20;24.65;;;15.40;99.90;;;;;;4959972;28;20026;-91
2023/05/10 05:59:30;;;;;;;32.15;24.05;;;15.50;99.90;;;;;;4960195;28;20054;-92
2023/05/10 06:01:59;;;;;;;39.50;26.33;;;15.50;99.90;;;;;;4959538;28;20482;-89
2023/05/10 06:04:24;;;;;;;34.13;24.40;;;15.50;99.90;;;;;;4944101;28;20174;-90
2023/05/10 06:06:52;;;;;;;36.10;26.23;;;15.40;99.90;;;;;;4959271;28;20098;-91
2023/05/10 06:09:18;;;;;;;37.33;26.45;;;15.50;99.90;;;;;;4959750;28;20027;-93
2023/05/10 06:11:44;;;;;;;37.13;25.45;;;15.50;99.90;;;;;;4959277;28;20502;-92
2023/05/10 06:14:10;;;;;;;41.05;26.20;;;15.50;99.90;;;;;;4959107;28;20046;-92
2023/05/10 06:16:36;;;;;;;38.03;25.13;;;15.50;99.90;;;;;;4959980;28;20043;-93
2023/05/10 06:19:02;;;;;;;38.92;26.17;;;15.60;99.90;;;;;;4959105;28;20034;-93
2023/05/10 06:21:28;;;;;;;38.90;25.95;;;15.60;99.90;;;;;;4959804;28;20110;-92
2023/05/10 06:23:54;;;;;;;36.63;25.52;;;15.60;99.90;;;;;;4960055;28;20104;-92
2023/05/10 06:26:20;;;;;;;37.88;25.95;;;15.60;99.90;;;;;;4942753;28;20121;-90
2023/05/10 06:28:46;;;;;;;38.50;26.75;;;15.60;99.90;;;;;;4976041;28;20033;-93
2023/05/10 06:31:12;;;;;;;36.55;26.95;;;15.60;99.90;;;;;;4943403;28;20027;-92
2023/05/10 06:33:38;;;;;;;36.50;26.63;;;15.60;99.90;;;;;;4959700;28;20045;-94
2023/05/10 06:36:03;;;;;;;35.67;26.35;;;15.60;99.90;;;;;;4943070;28;20039;-92
2023/05/10 06:38:29;;;;;;;34.13;25.00;;;15.60;99.90;;;;;;4959074;28;20486;-92
2023/05/10 06:40:55;;;;;;;33.88;25.02;;;15.70;99.90;;;;;;4943161;28;20129;-88
2023/05/10 06:43:21;;;;;;;37.97;26.40;;;15.70;99.90;;;;;;4959018;28;20038;-91
2023/05/10 06:45:48;;;;;;;35.88;26.35;;;15.60;99.90;;;;;;4958787;28;20027;-90
2023/05/10 06:48:13;;;;;;;37.00;26.48;;;15.60;99.90;;;;;;4976175;28;20033;-93
2023/05/10 06:50:39;;;;;;;38.90;25.63;;;15.60;99.90;;;;;;4976426;28;20027;-92
2023/05/10 06:53:05;;;;;;;36.83;26.25;;;15.60;99.90;;;;;;4942977;28;20031;-91
2023/05/10 06:55:30;;;;;;;38.50;26.02;;;15.60;99.90;;;;;;4976443;28;20031;-89
2023/05/10 06:57:56;;;;;;;39.17;26.75;;;15.60;99.90;;;;;;4959241;28;20027;-90
2023/05/10 07:00:22;;;;;;;38.95;26.58;;;15.60;99.90;;;;;;4943245;28;20023;-91
2023/05/10 07:02:48;;;;;;;39.45;27.00;;;15.60;99.90;;;;;;4959032;28;20037;-92
2023/05/10 07:05:14;;;;;;;35.67;25.73;;;15.60;99.90;;;;;;4959596;28;20387;-91
2023/05/10 07:07:40;;;;;;;39.30;28.38;;;15.60;99.90;;;;;;4959241;28;20033;-92
2023/05/10 07:10:07;;;;;;;39.28;26.60;;;15.60;99.90;;;;;;4959134;28;20019;-89
2023/05/10 07:12:32;;;;;;;37.15;27.38;;;15.60;99.90;;;;;;4943982;28;20031;-92
2023/05/10 07:14:58;;;;;;;39.30;27.08;;;15.60;99.90;;;;;;4963709;28;20106;-93
2023/05/10 07:17:24;;;;;;;39.70;27.98;;;15.60;99.90;;;;;;4977340;28;20074;-95
2023/05/10 07:19:50;;;;;;;43.72;28.33;;;15.60;99.90;;;;;;4999323;28;20011;-94
2023/05/10 07:22:16;;;;;;;41.72;28.05;;;15.60;99.90;;;;;;4993370;23;20039;-89
2023/05/10 07:24:42;;;;;;;36.75;26.83;;;15.70;99.90;;;;;;4998043;28;20030;-92
2023/05/10 07:27:08;;;;;;;37.58;26.38;;;15.70;99.90;;;;;;4993039;28;20027;-86
2023/05/10 07:29:34;;;;;;;37.42;26.73;;;15.60;99.90;;;;;;4966498;28;20034;-92
2023/05/10 07:32:01;;;;;;;44.22;29.90;;;15.70;99.90;;;;;;4963325;28;20261;-91
2023/05/10 07:34:29;;;;;;;46.72;31.95;;;15.70;99.90;;;;;;4977703;28;20073;-91
2023/05/10 07:36:57;;;;;;;46.95;30.88;;;15.60;99.90;;;;;;4942740;29;20031;-90
2023/05/10 07:39:23;;;;;;;49.28;33.85;;;15.60;99.90;;;;;;4941711;29;20447;-90
2023/05/10 07:41:48;;;;;;;50.03;31.98;;;15.60;99.90;;;;;;4959812;28;20054;-90
2023/05/10 07:44:14;;;;;;;48.65;31.38;;;15.60;99.90;;;;;;4977817;28;20035;-90
2023/05/10 07:46:40;;;;;;;45.13;30.33;;;15.50;99.90;;;;;;4964258;28;20054;-90
2023/05/10 07:49:06;;;;;;;43.83;29.73;;;15.50;99.90;;;;;;4963122;28;20027;-91
2023/05/10 07:51:32;;;;;;;43.50;29.95;;;15.60;99.90;;;;;;4962099;28;20459;-94
2023/05/10 07:53:57;;;;;;;41.67;29.02;;;15.60;99.90;;;;;;4946245;29;20039;-92
2023/05/10 07:56:32;;;;;;;41.80;28.83;;;15.60;99.90;;;;;;4958952;29;20122;-94
2023/05/10 07:58:58;;;;;;;46.03;30.08;;;15.70;99.90;;;;;;4943514;29;20459;-93
2023/05/10 08:01:25;;;;;;;42.78;28.15;;;15.70;99.90;;;;;;4942944;29;20027;-92
2023/05/10 08:03:53;;;;;;;38.35;26.92;;;15.70;99.90;;;;;;4943285;29;20095;-91
2023/05/10 08:06:19;;;;;;;43.05;27.08;;;15.80;99.90;;;;;;4943053;28;20027;-93
2023/05/10 08:08:49;;;;;;;39.70;27.58;;;15.80;99.90;;;;;;4976086;28;20091;-91
2023/05/10 08:11:17;;;;;;;36.00;25.90;;;15.90;99.90;;;;;;4942563;29;20024;-92
2023/05/10 08:13:44;;;;;;;40.65;25.90;;;16.00;99.90;;;;;;4958728;28;20040;-91
2023/05/10 08:16:09;;;;;;;39.97;26.40;;;16.00;99.90;;;;;;4959537;29;20027;-92
2023/05/10 08:18:35;;;;;;;37.90;26.13;;;16.00;99.90;;;;;;4958435;29;20027;-91
2023/05/10 08:21:01;;;;;;;36.55;26.27;;;16.10;99.90;;;;;;4942940;29;20086;-92
2023/05/10 08:23:27;;;;;;;36.80;27.25;;;16.20;99.90;;;;;;4969637;28;20110;-94
2023/05/10 08:25:55;;;;;;;32.95;24.27;;;16.30;99.90;;;;;;4994648;28;20114;-92
2023/05/10 08:28:21;;;;;;;38.47;26.50;;;16.30;99.90;;;;;;4961792;28;20035;-92
2023/05/10 08:30:49;;;;;;;38.85;26.92;;;16.30;99.90;;;;;;4960901;28;20026;-91
2023/05/10 08:33:18;;;;;;;38.47;26.23;;;16.30;99.90;;;;;;4977631;28;20394;-92
2023/05/10 08:35:47;;;;;;;35.38;25.38;;;16.30;99.90;;;;;;4949071;28;20052;-93
2023/05/10 08:38:13;;;;;;;35.03;25.90;;;16.30;99.90;;;;;;4975255;28;20030;-93
2023/05/10 08:40:42;;;;;;;39.22;27.17;;;16.30;99.90;;;;;;4945201;28;20031;-91
2023/05/10 08:43:10;;;;;;;32.85;24.20;;;16.30;99.90;;;;;;4961463;28;20019;-92
2023/05/10 08:45:41;;;;;;;30.05;23.55;;;16.30;99.90;;;;;;4961331;28;20031;-92
2023/05/10 08:48:08;;;;;;;33.75;24.13;;;16.40;99.90;;;;;;4975911;28;20022;-92
2023/05/10 08:50:39;;;;;;;33.13;22.52;;;16.40;99.90;;;;;;4964887;28;20093;-90
2023/05/10 08:53:10;;;;;;;27.70;20.73;;;16.40;99.90;;;;;;4959436;28;20391;-94
2023/05/10 08:55:38;;;;;;;23.98;18.63;;;16.40;99.90;;;;;;4965880;28;20125;-90
2023/05/10 08:58:04;;;;;;;23.55;17.15;;;16.40;99.90;;;;;;4966859;28;20463;-90
2023/05/10 09:00:31;;;;;;;22.75;16.42;;;16.40;99.90;;;;;;4986460;28;20015;-91
2023/05/10 09:02:58;;;;;;;19.60;14.73;;;16.40;99.90;;;;;;4983449;28;20573;-92
2023/05/10 09:05:24;;;;;;;19.70;14.27;;;16.40;99.90;;;;;;4984594;28;20031;-86
2023/05/10 09:07:50;;;;;;;19.17;13.52;;;16.40;99.90;;;;;;4984414;28;20007;-90
2023/05/10 09:10:16;;;;;;;19.83;13.98;;;16.40;99.90;;;;;;4979506;28;20027;-90
2023/05/10 09:12:45;;;;;;;18.10;12.25;;;16.50;99.90;;;;;;4953623;28;20031;-90
2023/05/10 09:15:11;;;;;;;14.43;11.65;;;16.50;99.90;;;;;;4979571;28;20039;-90
2023/05/10 09:17:40;;;;;;;13.75;10.25;;;16.60;99.90;;;;;;4993424;28;20037;-90
2023/05/10 09:20:06;;;;;;;12.70;9.63;;;16.60;99.90;;;;;;4961125;28;20046;-91
2023/05/10 09:22:33;;;;;;;10.35;8.57;;;16.60;99.90;;;;;;4940439;28;20047;-92
2023/05/10 09:25:13;;;;;;;12.27;9.13;;;16.60;99.90;;;;;;4954924;28;20118;-91
2023/05/10 09:27:41;;;;;;;14.27;9.50;;;16.60;99.90;;;;;;4960531;28;20023;-90
2023/05/10 09:30:07;;;;;;;11.30;8.48;;;16.70;99.90;;;;;;4944768;28;20135;-92
2023/05/10 09:32:41;;;;;;;9.93;8.15;;;16.70;99.90;;;;;;4977472;28;20030;-92
2023/05/10 09:35:14;;;;;;;11.27;8.63;;;16.80;99.90;;;;;;4960152;28;20463;-91
2023/05/10 09:37:41;;;;;;;9.73;7.93;;;16.80;99.90;;;;;;4956983;28;20496;-90
2023/05/10 09:40:18;;;;;;;10.23;7.40;;;16.80;99.90;;;;;;4960300;28;20023;-91
2023/05/10 09:43:06;;;;;;;10.63;7.75;;;16.90;99.90;;;;;;4960034;28;20031;-92
2023/05/10 09:45:34;;;;;;;12.38;7.78;;;16.90;99.90;;;;;;4977230;28;20378;-92
2023/05/10 09:48:02;;;;;;;7.90;6.30;;;17.00;99.90;;;;;;4944733;28;20054;-91
2023/05/10 09:50:29;;;;;;;7.82;6.75;;;17.00;99.90;;;;;;4976724;28;20077;-91
2023/05/10 09:53:00;;;;;;;7.20;5.78;;;17.00;99.90;;;;;;4960217;28;20046;-94
2023/05/10 09:55:37;;;;;;;9.00;6.78;;;17.00;99.90;;;;;;4977067;28;20035;-93
2023/05/10 09:58:10;;;;;;;12.13;7.43;;;17.10;99.90;;;;;;4977495;28;20110;-93
2023/05/10 10:00:43;;;;;;;9.25;6.90;;;17.10;99.90;;;;;;4960636;28;20026;-91
2023/05/10 10:03:22;;;;;;;8.98;6.40;;;17.10;99.90;;;;;;4976529;28;20038;-92
2023/05/10 10:05:53;;;;;;;7.65;6.22;;;17.10;99.90;;;;;;4935651;28;20108;-91
2023/05/10 10:08:24;;;;;;;6.88;5.85;;;17.20;99.90;;;;;;4960049;28;20023;-93
2023/05/10 10:10:50;;;;;;;8.60;5.57;;;17.10;99.90;;;;;;4942203;28;20081;-92
2023/05/10 10:13:17;;;;;;;6.68;5.72;;;17.10;99.90;;;;;;4940165;29;20031;-91
2023/05/10 10:15:44;;;;;;;8.02;5.85;;;17.10;99.90;;;;;;4957512;29;20031;-91
2023/05/10 10:18:14;;;;;;;6.72;5.75;;;17.10;99.90;;;;;;4974907;28;20510;-91
2023/05/10 10:20:40;;;;;;;6.22;5.50;;;17.10;99.90;;;;;;4944317;28;20054;-91
2023/05/10 10:23:09;;;;;;;7.53;6.03;;;17.20;99.90;;;;;;4959922;28;20054;-92
2023/05/10 10:25:35;;;;;;;7.45;6.13;;;17.20;99.90;;;;;;4976172;28;20034;-92
2023/05/10 10:28:40;;;;;;;8.55;6.40;;;17.20;99.90;;;;;;4963635;28;20031;-92
2023/05/10 10:31:24;;;;;;;7.25;5.90;;;17.20;99.90;;;;;;4962433;28;20049;-92
2023/05/10 10:34:06;;;;;;;7.65;5.70;;;17.20;99.90;;;;;;4964441;29;20086;-93
2023/05/10 10:36:33;;;;;;;7.18;6.18;;;17.30;99.90;;;;;;4957515;28;20027;-87
2023/05/10 10:39:13;;;;;;;9.32;6.78;;;17.30;99.90;;;;;;4962146;28;20027;-92
2023/05/10 10:41:48;;;;;;;9.60;7.03;;;17.30;99.90;;;;;;4977400;28;20057;-91
2023/05/10 10:44:30;;;;;;;8.85;6.38;;;17.30;99.90;;;;;;4960634;28;20069;-91
2023/05/10 10:47:11;;;;;;;8.20;6.72;;;17.30;99.90;;;;;;4977454;28;20026;-91
2023/05/10 10:49:41;;;;;;;8.57;7.15;;;17.30;99.90;;;;;;4982098;28;20015;-91
2023/05/10 10:52:36;;;;;;;8.00;6.80;;;17.40;99.90;;;;;;4982625;28;20065;-86
2023/05/10 10:55:11;;;;;;;9.75;7.60;;;17.40;99.90;;;;;;4959627;29;20043;-92
2023/05/10 10:58:04;;;;;;;8.52;7.38;;;17.40;99.90;;;;;;4928075;29;20035;-92
2023/05/10 11:00:37;;;;;;;8.95;7.72;;;17.50;99.90;;;;;;4940968;29;20024;-92
2023/05/10 11:03:08;;;;;;;10.10;7.18;;;17.50;99.90;;;;;;4958737;28;20023;-93
2023/05/10 11:05:38;;;;;;;9.90;7.95;;;17.50;99.90;;;;;;4943420;28;20058;-90
2023/05/10 11:08:13;;;;;;;12.82;7.70;;;17.50;99.90;;;;;;4954176;29;20023;-93
2023/05/10 11:10:40;;;;;;;9.27;7.13;;;17.60;99.90;;;;;;4942360;29;20458;-93
2023/05/10 11:13:09;;;;;;;9.82;7.43;;;17.60;99.90;;;;;;4947310;29;20043;-94
2023/05/10 11:15:38;;;;;;;10.57;7.20;;;17.60;99.90;;;;;;4963327;28;20043;-92
2023/05/10 11:18:26;;;;;;;11.88;7.57;;;17.60;99.90;;;;;;4956488;28;20466;-94
2023/05/10 11:20:57;;;;;;;7.50;6.30;;;17.70;99.90;;;;;;4950914;28;20023;-93
2023/05/10 11:23:23;;;;;;;;;;;17.60;99.90;;;;;;4935294;28;20507;-93
2023/05/10 11:25:50;;;;;;;9.23;7.10;;;17.60;99.90;;;;;;4937364;28;19921;-93
2023/05/10 11:28:18;;;;;;;9.95;6.47;;;17.60;99.90;;;;;;4934112;29;20054;-93
2023/05/10 11:30:45;;;;;;;8.85;6.65;;;17.60;99.90;;;;;;4968872;28;20019;-91
2023/05/10 11:33:16;;;;;;;8.20;7.07;;;17.60;99.90;;;;;;4931134;28;20494;-93
2023/05/10 11:35:42;;;;;;;8.90;7.13;;;17.70;99.90;;;;;;4950860;28;20525;-92
2023/05/10 11:38:12;;;;;;;9.18;6.70;;;17.70;99.90;;;;;;4924711;28;20039;-92
2023/05/10 11:40:39;;;;;;;10.50;7.10;;;17.80;99.90;;;;;;4931936;28;20019;-87
2023/05/10 11:43:08;;;;;;;8.50;7.30;;;17.90;99.90;;;;;;4958506;28;20522;-91
2023/05/10 11:45:34;;;;;;;8.88;7.35;;;17.90;99.90;;;;;;4922504;29;20027;-91
2023/05/10 11:48:01;;;;;;;9.63;7.20;;;17.90;99.90;;;;;;4923580;29;20028;-93
2023/05/10 11:50:27;;;;;;;11.38;7.60;;;18.00;99.90;;;;;;4923107;29;20034;-92
2023/05/10 11:52:57;;;;;;;8.10;6.90;;;18.00;99.90;;;;;;4956343;28;20356;-92
2023/05/10 11:55:24;;;;;;;8.30;6.70;;;18.00;99.90;;;;;;4958462;28;20031;-93
2023/05/10 11:57:54;;;;;;;8.02;7.15;;;18.00;99.90;;;;;;4975122;28;20030;-91
2023/05/10 12:00:20;;;;;;;8.73;6.72;;;18.10;99.90;;;;;;4975283;28;20031;-92
2023/05/10 12:02:46;;;;;;;9.13;6.65;;;18.10;99.90;;;;;;4957747;28;20443;-94
2023/05/10 12:05:12;;;;;;;9.80;6.90;;;18.10;99.90;;;;;;4958417;28;20034;-91
2023/05/10 12:07:38;;;;;;;8.75;6.15;;;18.10;99.90;;;;;;4974073;28;20034;-92
2023/05/10 12:10:08;;;;;;;7.90;6.25;;;18.20;99.90;;;;;;4974392;28;20019;-92
2023/05/10 12:12:39;;;;;;;8.02;7.10;;;18.20;99.90;;;;;;4975979;28;20019;-93
2023/05/10 12:15:10;;;;;;;8.35;6.57;;;18.30;99.90;;;;;;4975612;28;20039;-92
2023/05/10 12:17:38;;;;;;;9.00;6.70;;;18.40;99.90;;;;;;4975138;28;20019;-91
2023/05/10 12:20:15;;;;;;;6.45;5.75;;;18.40;99.90;;;;;;4942113;28;20030;-91
2023/05/10 12:22:49;;;;;;;7.45;5.20;;;18.60;99.90;;;;;;4942049;29;20102;-91
2023/05/10 12:25:16;;;;;;;8.10;5.47;;;18.60;99.90;;;;;;4970362;28;20037;-93
2023/05/10 12:27:53;;;;;;;8.65;5.90;;;18.60;99.90;;;;;;4965456;28;20371;-91
2023/05/10 12:30:20;;;;;;;6.03;5.10;;;18.70;99.90;;;;;;4958461;29;20091;-90
2023/05/10 12:32:46;;;;;;;6.30;4.80;;;18.70;99.90;;;;;;4951725;29;20083;-91
2023/05/10 12:35:12;;;;;;;7.03;4.97;;;18.70;99.90;;;;;;4977889;29;20043;-92
2023/05/10 12:37:40;;;;;;;6.15;4.65;;;18.70;99.90;;;;;;4980949;28;20084;-92
2023/05/10 12:40:08;;;;;;;6.13;4.13;;;18.70;99.90;;;;;;4946831;29;20050;-93